M4 — V7YF6 — position and weather

sailwx.info

Track history (hours):
 
Tides and Currents Weather Stations Pressure Air Temp Water Temp Dewpoint Dewpoint Depression Visibility Wind Speed Wind Dir Waves Ship Positions

M4

Last reported at 2015-Apr-28 03:23 UTC. Time now 2015-Apr-28 03:53 UTC.
Position N 18°04' W 063°05'.

Length 42 m; draft 2.4 m.

Type: Pleasure craft. MMSI: 538708350.

Date/timePositionNaut miles runAvg speedWind from/ knotsBaromVisibWave heightAir tempDewpointWater temp
2015-Apr-28 03:23N 18°04' W 063°05'0 0.0
2015-Apr-28 02:28N 18°04' W 063°05'0 0.0
2015-Apr-28 01:29N 18°04' W 063°05'0 0.0
2015-Apr-28 00:17N 18°04' W 063°05'0 0.0
2015-Apr-27 23:05N 18°04' W 063°05'0 0.0
2015-Apr-27 22:20N 18°04' W 063°05'0 0.0
2015-Apr-27 21:31N 18°04' W 063°05'0 0.0
2015-Apr-27 20:31N 18°04' W 063°05'0 0.0
2015-Apr-27 19:31N 18°04' W 063°05'2 1.8
2015-Apr-27 18:33N 18°05' W 063°07'6 6.1
2015-Apr-27 17:33N 17°59' W 063°04'10 0.4
2015-Apr-26 19:14N 17°51' W 062°58'710.1
2015-Apr-26 18:33N 17°47' W 063°04'1110.3
2015-Apr-26 17:29N 17°40' W 063°13'3 0.6
2015-Apr-26 12:32N 17°38' W 063°15'17 7.6
2015-Apr-26 10:18N 17°49' W 063°02'  
2015-Apr-23 19:20N 17°58' W 063°01'8 9.5
2015-Apr-23 18:29N 18°03' W 063°09'3 3.7
2015-Apr-23 17:33N 18°04' W 063°05'0 0.0
2015-Apr-23 16:21N 18°04' W 063°05'0 0.0
2015-Apr-23 14:33N 18°04' W 063°05'0 0.0
2015-Apr-23 13:21N 18°04' W 063°05'0 0.0
2015-Apr-23 12:27N 18°04' W 063°05'0 0.0
2015-Apr-23 11:24N 18°04' W 063°05'0 0.0
2015-Apr-23 10:27N 18°04' W 063°05'0 0.0
2015-Apr-23 09:24N 18°04' W 063°05'0 0.0
2015-Apr-23 08:30N 18°04' W 063°05'0 0.0
2015-Apr-23 07:30N 18°04' W 063°05'0 0.0
2015-Apr-23 06:33N 18°04' W 063°05'0 0.0
2015-Apr-23 05:30N 18°04' W 063°05'0 0.0
2015-Apr-23 04:33N 18°04' W 063°05'0 0.0
2015-Apr-23 03:21N 18°04' W 063°05'0 0.0
2015-Apr-23 02:18N 18°04' W 063°05'0 0.0
2015-Apr-23 01:33N 18°04' W 063°05'0 0.0
2015-Apr-23 00:24N 18°04' W 063°05'0 0.0
2015-Apr-22 23:24N 18°04' W 063°05'0 0.0
2015-Apr-22 22:27N 18°04' W 063°05'0 0.0
2015-Apr-22 21:27N 18°04' W 063°05'0 0.0
2015-Apr-22 20:24N 18°04' W 063°05'0 0.0
2015-Apr-22 19:30N 18°04' W 063°05'0 0.0
2015-Apr-22 18:30N 18°04' W 063°05'0 0.0
2015-Apr-22 17:30N 18°04' W 063°05'0 0.0
2015-Apr-22 16:33N 18°04' W 063°05'0 0.0
2015-Apr-22 15:33N 18°04' W 063°05'0 0.0
2015-Apr-22 14:26N 18°04' W 063°05'0 0.0
2015-Apr-22 13:29N 18°04' W 063°05'0 0.0
2015-Apr-22 12:32N 18°04' W 063°05'0 0.0
2015-Apr-22 11:17N 18°04' W 063°05'0 0.0
2015-Apr-22 10:32N 18°04' W 063°05'0 0.0
2015-Apr-22 09:32N 18°04' W 063°05'0 0.0
2015-Apr-22 08:32N 18°04' W 063°05'0 0.0
2015-Apr-22 07:32N 18°04' W 063°05'0 0.0
2015-Apr-22 06:23N 18°04' W 063°05'0 0.0
2015-Apr-22 05:23N 18°04' W 063°05'0 0.0
2015-Apr-22 04:26N 18°04' W 063°05'0 0.0
2015-Apr-22 03:23N 18°04' W 063°05'0 0.0
2015-Apr-22 01:29N 18°04' W 063°05'0 0.0
2015-Apr-22 00:29N 18°04' W 063°05'0 0.0
2015-Apr-21 23:29N 18°04' W 063°05'0 0.0
2015-Apr-21 22:32N 18°04' W 063°05'0 0.0
2015-Apr-21 21:32N 18°04' W 063°05'0 0.0
2015-Apr-21 20:32N 18°04' W 063°05'0 0.0
2015-Apr-21 19:05N 18°04' W 063°05'0 0.0
2015-Apr-21 18:32N 18°04' W 063°05'0 0.0
2015-Apr-21 17:33N 18°04' W 063°05'0 0.0
2015-Apr-21 16:20N 18°04' W 063°05'0 0.0
2015-Apr-21 15:23N 18°04' W 063°05'0 0.0
2015-Apr-21 14:26N 18°04' W 063°05'0 0.0
2015-Apr-21 13:19N 18°04' W 063°05'0 0.4
2015-Apr-21 12:21N 18°05' W 063°05'0 0.0
2015-Apr-21 11:33N 18°05' W 063°05'0 0.0
2015-Apr-21 10:33N 18°05' W 063°05'0 0.0
2015-Apr-21 09:24N 18°05' W 063°05'0 0.0
2015-Apr-21 08:24N 18°05' W 063°05'0 0.0
2015-Apr-21 07:21N 18°05' W 063°05'0 0.0
2015-Apr-21 06:27N 18°05' W 063°05'0 0.0
2015-Apr-21 05:24N 18°05' W 063°05'0 0.0
2015-Apr-21 03:30N 18°05' W 063°05'0 0.0
2015-Apr-21 02:30N 18°05' W 063°05'0 0.0
2015-Apr-21 01:27N 18°05' W 063°05'0 0.0
2015-Apr-21 00:27N 18°05' W 063°05'0 0.0
2015-Apr-20 23:33N 18°05' W 063°05'0 0.0
2015-Apr-20 22:30N 18°05' W 063°05'0 0.0
2015-Apr-20 21:21N 18°05' W 063°05'0 0.0
2015-Apr-20 20:33N 18°05' W 063°05'0 0.0
2015-Apr-20 19:33N 18°05' W 063°05'0 0.0
2015-Apr-20 18:33N 18°05' W 063°05'0 0.0
2015-Apr-20 17:06N 18°05' W 063°05'0 0.0
2015-Apr-20 16:27N 18°05' W 063°05'0 0.0
2015-Apr-20 15:12N 18°05' W 063°05'0 0.0
2015-Apr-20 14:15N 18°05' W 063°05'0 0.0
2015-Apr-20 13:12N 18°05' W 063°05'0 0.0
2015-Apr-20 12:15N 18°05' W 063°05'0 0.0
2015-Apr-20 11:30N 18°05' W 063°05'0 0.0
2015-Apr-20 10:18N 18°05' W 063°05'0 0.0
2015-Apr-20 09:33N 18°05' W 063°05'0 0.0
2015-Apr-20 08:30N 18°05' W 063°05'0 0.0
2015-Apr-20 07:33N 18°05' W 063°05'0 0.0
2015-Apr-20 06:33N 18°05' W 063°05'0 0.0
2015-Apr-20 05:22N 18°05' W 063°05'0 0.0
2015-Apr-20 04:33N 18°05' W 063°05'0 0.0
2015-Apr-20 03:28N 18°05' W 063°05'0 0.0
2015-Apr-20 02:27N 18°05' W 063°05'0 0.0
2015-Apr-20 01:09N 18°05' W 063°05'0 0.0
2015-Apr-20 00:27N 18°05' W 063°05'0 0.0
2015-Apr-19 23:30N 18°05' W 063°05'0 0.0
2015-Apr-19 22:30N 18°05' W 063°05'0 0.4
2015-Apr-19 21:31N 18°04' W 063°05'3 3.3
2015-Apr-19 20:27N 18°01' W 063°07'  
Track history (hours):
 
Tides and Currents Weather Stations Pressure Air Temp Water Temp Dewpoint Dewpoint Depression Visibility Wind Speed Wind Dir Waves Ship Positions

M4

Last reported at 2015-Apr-28 03:23 UTC. Time now 2015-Apr-28 03:53 UTC.
Position N 18°04' W 063°05'.

Length 42 m; draft 2.4 m.

Type: Pleasure craft. MMSI: 538708350.

Date/timePositionNaut miles runAvg speedWind from/ knotsBaromVisibWave heightAir tempDewpointWater temp
2015-Apr-28 03:23N 18°04' W 063°05'0 0.0
2015-Apr-28 02:28N 18°04' W 063°05'0 0.0
2015-Apr-28 01:29N 18°04' W 063°05'0 0.0
2015-Apr-28 00:17N 18°04' W 063°05'0 0.0
2015-Apr-27 23:05N 18°04' W 063°05'0 0.0
2015-Apr-27 22:20N 18°04' W 063°05'0 0.0
2015-Apr-27 21:31N 18°04' W 063°05'0 0.0
2015-Apr-27 20:31N 18°04' W 063°05'0 0.0
2015-Apr-27 19:31N 18°04' W 063°05'2 1.8
2015-Apr-27 18:33N 18°05' W 063°07'6 6.1
2015-Apr-27 17:33N 17°59' W 063°04'10 0.4
2015-Apr-26 19:14N 17°51' W 062°58'710.1
2015-Apr-26 18:33N 17°47' W 063°04'1110.3
2015-Apr-26 17:29N 17°40' W 063°13'3 0.6
2015-Apr-26 12:32N 17°38' W 063°15'17 7.6
2015-Apr-26 10:18N 17°49' W 063°02'  
2015-Apr-23 19:20N 17°58' W 063°01'8 9.5
2015-Apr-23 18:29N 18°03' W 063°09'3 3.7
2015-Apr-23 17:33N 18°04' W 063°05'0 0.0
2015-Apr-23 16:21N 18°04' W 063°05'0 0.0
2015-Apr-23 14:33N 18°04' W 063°05'0 0.0
2015-Apr-23 13:21N 18°04' W 063°05'0 0.0
2015-Apr-23 12:27N 18°04' W 063°05'0 0.0
2015-Apr-23 11:24N 18°04' W 063°05'0 0.0
2015-Apr-23 10:27N 18°04' W 063°05'0 0.0
2015-Apr-23 09:24N 18°04' W 063°05'0 0.0
2015-Apr-23 08:30N 18°04' W 063°05'0 0.0
2015-Apr-23 07:30N 18°04' W 063°05'0 0.0
2015-Apr-23 06:33N 18°04' W 063°05'0 0.0
2015-Apr-23 05:30N 18°04' W 063°05'0 0.0
2015-Apr-23 04:33N 18°04' W 063°05'0 0.0
2015-Apr-23 03:21N 18°04' W 063°05'0 0.0
2015-Apr-23 02:18N 18°04' W 063°05'0 0.0
2015-Apr-23 01:33N 18°04' W 063°05'0 0.0
2015-Apr-23 00:24N 18°04' W 063°05'0 0.0
2015-Apr-22 23:24N 18°04' W 063°05'0 0.0
2015-Apr-22 22:27N 18°04' W 063°05'0 0.0
2015-Apr-22 21:27N 18°04' W 063°05'0 0.0
2015-Apr-22 20:24N 18°04' W 063°05'0 0.0
2015-Apr-22 19:30N 18°04' W 063°05'0 0.0
2015-Apr-22 18:30N 18°04' W 063°05'0 0.0
2015-Apr-22 17:30N 18°04' W 063°05'0 0.0
2015-Apr-22 16:33N 18°04' W 063°05'0 0.0
2015-Apr-22 15:33N 18°04' W 063°05'0 0.0
2015-Apr-22 14:26N 18°04' W 063°05'0 0.0
2015-Apr-22 13:29N 18°04' W 063°05'0 0.0
2015-Apr-22 12:32N 18°04' W 063°05'0 0.0
2015-Apr-22 11:17N 18°04' W 063°05'0 0.0
2015-Apr-22 10:32N 18°04' W 063°05'0 0.0
2015-Apr-22 09:32N 18°04' W 063°05'0 0.0
2015-Apr-22 08:32N 18°04' W 063°05'0 0.0
2015-Apr-22 07:32N 18°04' W 063°05'0 0.0
2015-Apr-22 06:23N 18°04' W 063°05'0 0.0
2015-Apr-22 05:23N 18°04' W 063°05'0 0.0
2015-Apr-22 04:26N 18°04' W 063°05'0 0.0
2015-Apr-22 03:23N 18°04' W 063°05'0 0.0
2015-Apr-22 01:29N 18°04' W 063°05'0 0.0
2015-Apr-22 00:29N 18°04' W 063°05'0 0.0
2015-Apr-21 23:29N 18°04' W 063°05'0 0.0
2015-Apr-21 22:32N 18°04' W 063°05'0 0.0
2015-Apr-21 21:32N 18°04' W 063°05'0 0.0
2015-Apr-21 20:32N 18°04' W 063°05'0 0.0
2015-Apr-21 19:05N 18°04' W 063°05'0 0.0
2015-Apr-21 18:32N 18°04' W 063°05'0 0.0
2015-Apr-21 17:33N 18°04' W 063°05'0 0.0
2015-Apr-21 16:20N 18°04' W 063°05'0 0.0
2015-Apr-21 15:23N 18°04' W 063°05'0 0.0
2015-Apr-21 14:26N 18°04' W 063°05'0 0.0
2015-Apr-21 13:19N 18°04' W 063°05'0 0.4
2015-Apr-21 12:21N 18°05' W 063°05'0 0.0
2015-Apr-21 11:33N 18°05' W 063°05'0 0.0
2015-Apr-21 10:33N 18°05' W 063°05'0 0.0
2015-Apr-21 09:24N 18°05' W 063°05'0 0.0
2015-Apr-21 08:24N 18°05' W 063°05'0 0.0
2015-Apr-21 07:21N 18°05' W 063°05'0 0.0
2015-Apr-21 06:27N 18°05' W 063°05'0 0.0
2015-Apr-21 05:24N 18°05' W 063°05'0 0.0
2015-Apr-21 03:30N 18°05' W 063°05'0 0.0
2015-Apr-21 02:30N 18°05' W 063°05'0 0.0
2015-Apr-21 01:27N 18°05' W 063°05'0 0.0
2015-Apr-21 00:27N 18°05' W 063°05'0 0.0
2015-Apr-20 23:33N 18°05' W 063°05'0 0.0
2015-Apr-20 22:30N 18°05' W 063°05'0 0.0
2015-Apr-20 21:21N 18°05' W 063°05'0 0.0
2015-Apr-20 20:33N 18°05' W 063°05'0 0.0
2015-Apr-20 19:33N 18°05' W 063°05'0 0.0
2015-Apr-20 18:33N 18°05' W 063°05'0 0.0
2015-Apr-20 17:06N 18°05' W 063°05'0 0.0
2015-Apr-20 16:27N 18°05' W 063°05'0 0.0
2015-Apr-20 15:12N 18°05' W 063°05'0 0.0
2015-Apr-20 14:15N 18°05' W 063°05'0 0.0
2015-Apr-20 13:12N 18°05' W 063°05'0 0.0
2015-Apr-20 12:15N 18°05' W 063°05'0 0.0
2015-Apr-20 11:30N 18°05' W 063°05'0 0.0
2015-Apr-20 10:18N 18°05' W 063°05'0 0.0
2015-Apr-20 09:33N 18°05' W 063°05'0 0.0
2015-Apr-20 08:30N 18°05' W 063°05'0 0.0
2015-Apr-20 07:33N 18°05' W 063°05'0 0.0
2015-Apr-20 06:33N 18°05' W 063°05'0 0.0
2015-Apr-20 05:22N 18°05' W 063°05'0 0.0
2015-Apr-20 04:33N 18°05' W 063°05'0 0.0
2015-Apr-20 03:28N 18°05' W 063°05'0 0.0
2015-Apr-20 02:27N 18°05' W 063°05'0 0.0
2015-Apr-20 01:09N 18°05' W 063°05'0 0.0
2015-Apr-20 00:27N 18°05' W 063°05'0 0.0
2015-Apr-19 23:30N 18°05' W 063°05'0 0.0
2015-Apr-19 22:30N 18°05' W 063°05'0 0.4
2015-Apr-19 21:31N 18°04' W 063°05'3 3.3
2015-Apr-19 20:27N 18°01' W 063°07'  

Dump ship's entire track history